Binger, Oklahoma
Current Conditions -  °F | °C
As of 5:15 AM on Thursday 23 Oct 2014 (Local Time) from KRQO Reporting Station
Overcast Overcast  
Wind Chill: 61°   Ceiling: 5000
Heat Index: 61°   Visibility: 10mi
Dew Point: 59°   Wind: 10mph
Humidity: 94%   Direction: 160°SSE
Pressure: 30.09"   Gusts: NA
Location:  35.31°N, 98.34°W
Report Text: KRQO 231015Z AUTO 16009KT 10SM SCT042 OVC050 16/15 A3009 RMK AO2
Loading
Personal Weather Stations






























Interactive Weather Map
Tropical Storm Tracking
New forecast layout! Learn more

10-Day Weather Forecast

Advertisements
Track Severe Weather on mobile